createdAt,value
2023-02-05T00:01:03.279Z,8.80
2023-02-05T00:03:35.313Z,9.70
2023-02-05T00:06:08.406Z,8.60
2023-02-05T00:08:38.524Z,9.23
2023-02-05T00:11:10.394Z,8.25
2023-02-05T00:13:41.496Z,8.68
2023-02-05T00:16:12.757Z,8.68
2023-02-05T00:18:43.122Z,9.20
2023-02-05T00:21:16.801Z,8.88
2023-02-05T00:23:47.291Z,8.38
2023-02-05T00:26:17.415Z,9.23
2023-02-05T00:28:48.474Z,8.43
2023-02-05T00:31:22.500Z,8.35
2023-02-05T00:33:54.193Z,8.50
2023-02-05T00:36:27.480Z,9.07
2023-02-05T00:38:57.481Z,8.73
2023-02-05T00:41:27.753Z,9.75
2023-02-05T00:43:57.685Z,9.60
2023-02-05T00:46:27.611Z,9.13
2023-02-05T00:48:57.522Z,9.95
2023-02-05T00:51:30.075Z,9.32
2023-02-05T00:53:59.960Z,9.45
2023-02-05T00:56:29.965Z,9.75
2023-02-05T00:59:00.177Z,8.93
2023-02-05T01:01:30.193Z,9.90
2023-02-05T01:04:00.149Z,8.68
2023-02-05T01:06:32.671Z,9.43
2023-02-05T01:09:02.527Z,8.68
2023-02-05T01:11:32.582Z,8.48
2023-02-05T01:14:02.475Z,8.88
2023-02-05T01:16:32.415Z,8.45
2023-02-05T01:19:02.341Z,8.63
2023-02-05T01:21:36.363Z,8.93
2023-02-05T01:24:06.763Z,7.93
2023-02-05T01:26:36.670Z,8.48
2023-02-05T01:29:06.692Z,8.70
2023-02-05T01:31:36.754Z,8.40
2023-02-05T01:34:06.705Z,8.88
2023-02-05T01:36:39.205Z,9.18
2023-02-05T01:39:09.104Z,8.45
2023-02-05T01:41:41.979Z,8.65
2023-02-05T01:44:15.077Z,8.38
2023-02-05T01:46:46.790Z,8.27
2023-02-05T01:49:21.241Z,8.88
2023-02-05T01:51:56.711Z,8.95
2023-02-05T01:54:29.886Z,8.57
2023-02-05T01:57:08.258Z,9.13
2023-02-05T01:59:42.023Z,9.10
2023-02-05T02:02:12.067Z,8.47
2023-02-05T02:04:44.921Z,8.88
2023-02-05T02:07:21.278Z,9.25
2023-02-05T02:09:52.296Z,9.23
2023-02-05T02:12:26.930Z,8.88
2023-02-05T02:17:30.989Z,8.20
2023-02-05T02:20:07.371Z,7.75
2023-02-05T02:22:55.159Z,8.20
2023-02-05T02:26:06.974Z,7.57
2023-02-05T02:28:43.743Z,8.23
2023-02-05T02:31:17.944Z,7.93
2023-02-05T02:33:53.476Z,7.10
2023-02-05T02:36:32.366Z,7.68
2023-02-05T02:39:11.007Z,7.82
2023-02-05T02:41:50.874Z,7.75
2023-02-05T02:44:31.107Z,7.80
2023-02-05T02:47:06.942Z,8.45
2023-02-05T02:49:42.348Z,9.23
2023-02-05T02:52:16.237Z,11.10
2023-02-05T02:54:50.796Z,19.00
2023-02-05T02:59:58.292Z,26.95
2023-02-05T03:02:31.582Z,28.65
2023-02-05T03:05:06.533Z,31.02
2023-02-05T03:07:41.017Z,26.83
2023-02-05T03:10:17.025Z,23.45
2023-02-05T03:12:47.131Z,22.83
2023-02-05T03:15:19.785Z,21.45
2023-02-05T03:17:49.769Z,19.85
2023-02-05T03:20:25.786Z,19.60
2023-02-05T03:22:56.354Z,17.33
2023-02-05T03:25:28.191Z,13.52
2023-02-05T03:27:59.323Z,10.20
2023-02-05T03:30:40.621Z,10.15
2023-02-05T03:33:30.452Z,9.95
2023-02-05T03:36:09.656Z,10.02
2023-02-05T03:38:54.894Z,9.57
2023-02-05T03:41:53.538Z,9.25
2023-02-05T03:44:39.936Z,8.35
2023-02-05T03:47:24.553Z,8.35
2023-02-05T03:50:03.712Z,8.82
2023-02-05T03:52:37.942Z,8.35
2023-02-05T03:55:11.816Z,8.88
2023-02-05T03:57:48.225Z,8.40
2023-02-05T04:00:19.179Z,8.25
2023-02-05T04:02:51.705Z,9.80
2023-02-05T04:05:23.099Z,10.05
2023-02-05T04:07:53.525Z,9.30
2023-02-05T04:10:23.446Z,8.27
2023-02-05T04:12:53.357Z,9.40
2023-02-05T04:15:23.210Z,9.32
2023-02-05T04:17:57.929Z,8.52
2023-02-05T04:20:27.970Z,8.48
2023-02-05T04:22:57.865Z,8.95
2023-02-05T04:25:27.777Z,8.93
2023-02-05T04:27:57.720Z,8.50
2023-02-05T04:30:27.792Z,8.20
2023-02-05T04:33:00.272Z,9.18
2023-02-05T04:35:30.281Z,7.57
2023-02-05T04:38:00.125Z,8.05
2023-02-05T04:40:30.170Z,8.18
2023-02-05T04:43:00.089Z,8.85
2023-02-05T04:45:31.338Z,8.05
2023-02-05T04:48:06.659Z,8.88
2023-02-05T04:50:36.867Z,8.82
2023-02-05T04:53:06.826Z,8.90
2023-02-05T04:55:37.065Z,8.65
2023-02-05T04:58:06.994Z,8.88
2023-02-05T05:00:36.925Z,8.55
2023-02-05T05:03:09.485Z,10.45
2023-02-05T05:05:39.389Z,10.45
2023-02-05T05:08:09.239Z,9.45
2023-02-05T05:10:41.482Z,9.75
2023-02-05T05:13:11.344Z,8.75
2023-02-05T05:15:41.300Z,8.68
2023-02-05T05:18:13.808Z,9.75
2023-02-05T05:20:43.677Z,9.32
2023-02-05T05:23:13.589Z,9.18
2023-02-05T05:25:45.417Z,9.43
2023-02-05T05:28:16.943Z,10.05
2023-02-05T05:30:48.944Z,9.70
2023-02-05T05:33:21.528Z,9.43
2023-02-05T05:35:51.423Z,12.65
2023-02-05T05:38:21.340Z,45.55
2023-02-05T05:41:09.682Z,29.23
2023-02-05T05:43:51.526Z,20.48
2023-02-05T05:46:24.729Z,12.35
2023-02-05T05:48:59.581Z,11.25
2023-02-05T05:51:32.609Z,10.60
2023-02-05T05:54:03.374Z,9.10
2023-02-05T05:56:33.270Z,9.30
2023-02-05T05:59:03.117Z,8.77
2023-02-05T06:01:33.066Z,9.77
2023-02-05T06:04:05.609Z,8.88
2023-02-05T06:06:36.082Z,9.30
2023-02-05T06:09:06.156Z,9.93
2023-02-05T06:11:36.044Z,9.75
2023-02-05T06:14:05.989Z,9.02
2023-02-05T06:16:35.862Z,9.50
2023-02-05T06:19:08.292Z,17.50
2023-02-05T06:21:38.216Z,13.80
2023-02-05T06:24:08.998Z,12.10
2023-02-05T06:26:38.906Z,40.55
2023-02-05T06:29:08.775Z,18.23
2023-02-05T06:31:38.732Z,20.30
2023-02-05T06:34:11.259Z,15.43
2023-02-05T06:36:41.175Z,13.85
2023-02-05T06:39:11.143Z,12.55
2023-02-05T06:41:41.017Z,12.35
2023-02-05T06:44:11.023Z,11.45
2023-02-05T06:46:40.927Z,11.13
2023-02-05T06:49:13.403Z,11.60
2023-02-05T06:51:43.298Z,13.68
2023-02-05T06:54:13.187Z,12.90
2023-02-05T06:56:43.146Z,12.27
2023-02-05T06:59:13.245Z,11.77
2023-02-05T07:01:43.104Z,11.73
2023-02-05T07:04:15.609Z,12.77
2023-02-05T07:06:45.579Z,13.80
2023-02-05T07:09:15.511Z,15.30
2023-02-05T07:11:45.440Z,15.52
2023-02-05T07:14:15.306Z,13.65
2023-02-05T07:16:45.275Z,13.35
2023-02-05T07:19:17.774Z,11.20
2023-02-05T07:21:47.976Z,11.80
2023-02-05T07:24:18.118Z,13.00
2023-02-05T07:26:48.091Z,12.85
2023-02-05T07:29:18.025Z,13.40
2023-02-05T07:31:47.925Z,11.85
2023-02-05T07:34:21.478Z,11.43
2023-02-05T07:36:53.716Z,11.55
2023-02-05T07:39:23.596Z,10.55
2023-02-05T07:41:53.987Z,9.93
2023-02-05T07:44:23.972Z,9.88
2023-02-05T07:46:53.922Z,9.45
2023-02-05T07:49:26.826Z,9.50
2023-02-05T07:51:56.692Z,9.90
2023-02-05T07:54:27.248Z,9.80
2023-02-05T07:56:57.318Z,9.88
2023-02-05T07:59:27.318Z,9.80
2023-02-05T08:01:57.295Z,9.90
2023-02-05T08:04:29.860Z,9.43
2023-02-05T08:06:59.744Z,9.48
2023-02-05T08:09:30.033Z,9.27
2023-02-05T08:12:00.037Z,10.20
2023-02-05T08:14:31.282Z,9.57
2023-02-05T08:17:01.266Z,9.73
2023-02-05T08:19:33.856Z,9.40
2023-02-05T08:22:03.742Z,9.02
2023-02-05T08:24:34.880Z,7.78
2023-02-05T08:27:04.784Z,8.73
2023-02-05T08:29:34.675Z,8.48
2023-02-05T08:32:04.556Z,7.90
2023-02-05T08:34:38.269Z,7.75
2023-02-05T08:37:08.170Z,8.13
2023-02-05T08:39:38.446Z,8.65
2023-02-05T08:42:08.534Z,8.80
2023-02-05T08:44:38.441Z,7.80
2023-02-05T08:47:08.343Z,7.43
2023-02-05T08:49:40.948Z,8.00
2023-02-05T08:52:10.835Z,7.88
2023-02-05T08:54:41.883Z,7.10
2023-02-05T08:57:12.089Z,7.45
2023-02-05T08:59:42.007Z,7.25
2023-02-05T09:02:16.997Z,7.30
2023-02-05T09:04:51.342Z,6.50
2023-02-05T09:07:24.487Z,7.30
2023-02-05T09:09:54.795Z,7.60
2023-02-05T09:12:24.778Z,7.82
2023-02-05T09:14:54.640Z,6.60
2023-02-05T09:17:24.562Z,6.38
2023-02-05T09:19:57.015Z,6.38
2023-02-05T09:22:26.899Z,6.68
2023-02-05T09:24:56.823Z,6.35
2023-02-05T09:27:26.754Z,5.82
2023-02-05T09:29:56.613Z,5.68
2023-02-05T09:32:27.059Z,5.53
2023-02-05T09:34:59.522Z,4.90
2023-02-05T09:37:29.378Z,5.25
2023-02-05T09:43:02.247Z,5.03
2023-02-05T09:45:42.253Z,4.90
2023-02-05T09:48:34.681Z,4.20
2023-02-05T09:51:10.383Z,4.90
2023-02-05T09:53:45.829Z,4.32
2023-02-05T09:56:17.812Z,4.35
2023-02-05T09:58:51.597Z,4.50
2023-02-05T10:01:28.971Z,4.90
2023-02-05T10:04:04.148Z,4.40
2023-02-05T10:06:49.983Z,4.40
2023-02-05T10:09:50.937Z,4.28
2023-02-05T10:12:37.897Z,5.50
2023-02-05T10:15:25.120Z,4.88
2023-02-05T10:18:09.165Z,4.28
2023-02-05T10:20:56.814Z,4.30
2023-02-05T10:23:59.097Z,4.10
2023-02-05T10:26:40.859Z,5.22
2023-02-05T10:29:22.602Z,4.47
2023-02-05T10:32:10.458Z,4.68
2023-02-05T10:34:55.169Z,4.75
2023-02-05T10:37:37.532Z,3.95
2023-02-05T10:40:19.348Z,4.03
2023-02-05T10:42:54.238Z,4.30
2023-02-05T10:45:30.379Z,3.60
2023-02-05T10:48:22.732Z,3.80
2023-02-05T10:50:59.708Z,3.70
2023-02-05T10:53:31.707Z,4.35
2023-02-05T10:56:06.911Z,3.63
2023-02-05T10:58:43.991Z,3.30
2023-02-05T11:01:18.850Z,4.00
2023-02-05T11:03:58.927Z,3.35
2023-02-05T11:06:32.253Z,3.40
2023-02-05T11:09:02.446Z,3.50
2023-02-05T11:11:37.187Z,3.25
2023-02-05T11:14:10.140Z,3.15
2023-02-05T11:16:44.796Z,3.22
2023-02-05T11:21:58.049Z,2.85
2023-02-05T11:24:32.827Z,3.40
2023-02-05T11:27:33.385Z,2.85
2023-02-05T11:30:49.579Z,3.35
2023-02-05T11:33:27.944Z,4.40
2023-02-05T11:36:02.902Z,3.08
2023-02-05T11:38:45.451Z,3.85
2023-02-05T11:41:29.839Z,2.88
2023-02-05T11:44:06.475Z,2.95
2023-02-05T11:46:47.410Z,2.97
2023-02-05T11:49:25.247Z,3.08
2023-02-05T11:51:58.689Z,3.30
2023-02-05T11:54:32.640Z,3.67
2023-02-05T11:57:10.486Z,3.67
2023-02-05T11:59:44.743Z,3.30
2023-02-05T12:02:37.726Z,2.80
2023-02-05T12:05:21.312Z,3.17
2023-02-05T12:07:58.285Z,2.90
2023-02-05T12:10:38.149Z,3.13
2023-02-05T12:13:18.551Z,3.00
2023-02-05T12:16:02.894Z,3.00
2023-02-05T12:18:48.504Z,3.35
2023-02-05T12:21:30.021Z,3.70
2023-02-05T12:24:47.653Z,3.20
2023-02-05T12:27:35.027Z,3.53
2023-02-05T12:30:29.248Z,2.97
2023-02-05T12:33:30.682Z,3.10
2023-02-05T12:36:20.526Z,3.45
2023-02-05T12:39:02.921Z,2.97
2023-02-05T12:41:43.822Z,5.32
2023-02-05T12:44:31.954Z,3.75
2023-02-05T12:47:19.884Z,3.35
2023-02-05T12:50:15.136Z,3.10
2023-02-05T12:53:02.978Z,4.57
2023-02-05T12:55:51.172Z,28.48
2023-02-05T12:58:22.838Z,7.05
2023-02-05T13:00:57.766Z,4.38
2023-02-05T13:03:36.539Z,4.15
2023-02-05T13:06:15.934Z,3.33
2023-02-05T13:08:52.063Z,3.85
2023-02-05T13:11:27.238Z,3.97
2023-02-05T13:14:04.622Z,4.32
2023-02-05T13:16:41.479Z,4.00
2023-02-05T13:19:26.071Z,3.35
2023-02-05T13:22:13.087Z,3.40
2023-02-05T13:25:02.248Z,3.30
2023-02-05T13:27:49.890Z,3.53
2023-02-05T13:30:24.310Z,3.33
2023-02-05T13:33:00.280Z,3.58
2023-02-05T13:35:36.422Z,3.17
2023-02-05T13:38:42.235Z,3.05
2023-02-05T13:41:35.837Z,3.70
2023-02-05T13:44:47.090Z,3.53
2023-02-05T13:47:46.897Z,3.60
2023-02-05T13:50:49.144Z,3.10
2023-02-05T13:53:34.430Z,3.42
2023-02-05T13:56:25.207Z,3.33
2023-02-05T13:58:57.634Z,3.22
2023-02-05T14:01:34.551Z,2.95
2023-02-05T14:04:09.439Z,2.70
2023-02-05T14:06:41.336Z,2.78
2023-02-05T14:09:25.846Z,3.00
2023-02-05T14:11:58.956Z,3.17
2023-02-05T14:14:35.114Z,2.40
2023-02-05T14:17:41.454Z,2.38
2023-02-05T14:20:45.605Z,2.83
2023-02-05T14:23:23.658Z,2.92
2023-02-05T14:26:14.138Z,3.03
2023-02-05T14:28:53.249Z,2.97
2023-02-05T14:31:51.492Z,2.78
2023-02-05T14:34:49.092Z,2.60
2023-02-05T14:37:38.224Z,2.20
2023-02-05T14:40:30.398Z,2.25
2023-02-05T14:43:17.579Z,2.22
2023-02-05T14:45:50.782Z,2.58
2023-02-05T14:48:27.836Z,2.42
2023-02-05T14:51:09.692Z,2.47
2023-02-05T14:53:41.040Z,2.80
2023-02-05T14:56:11.260Z,2.33
2023-02-05T14:58:45.282Z,2.50
2023-02-05T15:01:45.310Z,2.60
2023-02-05T15:04:31.601Z,2.38
2023-02-05T15:07:04.259Z,2.30
2023-02-05T15:09:44.537Z,2.97
2023-02-05T15:12:49.780Z,3.05
2023-02-05T15:15:35.892Z,2.78
2023-02-05T15:18:14.773Z,3.58
2023-02-05T15:20:50.460Z,3.95
2023-02-05T15:23:28.290Z,3.80
2023-02-05T15:26:01.906Z,3.72
2023-02-05T15:28:37.402Z,3.92
2023-02-05T15:31:23.338Z,4.40
2023-02-05T15:34:02.289Z,4.25
2023-02-05T15:36:39.485Z,3.53
2023-02-05T15:39:19.856Z,3.80
2023-02-05T15:41:51.457Z,4.15
2023-02-05T15:44:29.548Z,3.45
2023-02-05T15:47:05.742Z,3.85
2023-02-05T15:49:41.242Z,3.80
2023-02-05T15:52:17.169Z,4.03
2023-02-05T15:54:47.121Z,4.38
2023-02-05T15:57:24.028Z,4.55
2023-02-05T15:59:56.294Z,4.43
2023-02-05T16:02:31.369Z,4.78
2023-02-05T16:05:03.995Z,4.25
2023-02-05T16:07:43.534Z,4.82
2023-02-05T16:10:22.110Z,5.38
2023-02-05T16:13:17.431Z,5.85
2023-02-05T16:15:56.651Z,4.90
2023-02-05T16:18:40.608Z,5.50
2023-02-05T16:21:20.659Z,5.68
2023-02-05T16:23:57.428Z,4.78
2023-02-05T16:26:33.986Z,4.80
2023-02-05T16:29:11.692Z,5.82
2023-02-05T16:31:50.514Z,7.93
2023-02-05T16:34:25.329Z,8.52
2023-02-05T16:36:58.680Z,12.00
2023-02-05T16:39:32.013Z,7.15
2023-02-05T16:42:08.386Z,6.82
2023-02-05T16:44:40.567Z,9.40
2023-02-05T16:47:18.568Z,10.68
2023-02-05T16:49:53.297Z,16.52
2023-02-05T16:55:15.963Z,13.50
2023-02-05T16:57:47.624Z,11.98
2023-02-05T17:00:25.405Z,13.13
2023-02-05T17:02:58.041Z,12.52
2023-02-05T17:05:34.868Z,12.07
2023-02-05T17:08:07.326Z,11.35
2023-02-05T17:10:53.217Z,11.82
2023-02-05T17:13:32.374Z,11.90
2023-02-05T17:16:23.501Z,11.57
2023-02-05T17:19:01.459Z,10.18
2023-02-05T17:21:36.906Z,8.82
2023-02-05T17:24:09.592Z,9.13
2023-02-05T17:26:43.421Z,9.45
2023-02-05T17:29:18.705Z,8.10
2023-02-05T17:31:48.727Z,7.65
2023-02-05T17:34:18.625Z,8.20
2023-02-05T17:36:51.566Z,8.40
2023-02-05T17:39:21.460Z,8.07
2023-02-05T17:42:07.838Z,7.63
2023-02-05T17:44:38.429Z,8.40
2023-02-05T17:47:09.391Z,8.15
2023-02-05T17:49:39.310Z,8.07
2023-02-05T17:52:12.631Z,8.63
2023-02-05T17:54:42.642Z,9.18
2023-02-05T17:57:21.120Z,8.82
2023-02-05T17:59:52.222Z,9.13
2023-02-05T18:02:22.261Z,9.93
2023-02-05T18:04:52.184Z,8.90
2023-02-05T18:07:32.216Z,9.25
2023-02-05T18:10:02.389Z,10.30
2023-02-05T18:12:32.548Z,9.63
2023-02-05T18:15:02.463Z,10.63
2023-02-05T18:17:32.792Z,11.07
2023-02-05T18:20:02.901Z,14.05
2023-02-05T18:22:35.442Z,14.55
2023-02-05T18:25:05.382Z,18.95
2023-02-05T18:27:35.989Z,14.98
2023-02-05T18:30:06.460Z,13.82
2023-02-05T18:32:36.474Z,14.05
2023-02-05T18:35:06.727Z,13.85
2023-02-05T18:37:39.401Z,15.32
2023-02-05T18:40:10.887Z,14.63
2023-02-05T18:42:41.432Z,16.65
2023-02-05T18:45:12.620Z,15.95
2023-02-05T18:47:42.594Z,15.88
2023-02-05T18:50:12.922Z,15.40
2023-02-05T18:52:45.379Z,17.10
2023-02-05T18:55:15.449Z,16.45
2023-02-05T18:57:45.337Z,17.20
2023-02-05T19:00:17.087Z,16.65
2023-02-05T19:02:46.988Z,16.80
2023-02-05T19:05:16.908Z,15.90
2023-02-05T19:07:49.350Z,16.75
2023-02-05T19:10:20.475Z,19.75
2023-02-05T19:12:50.900Z,19.77
2023-02-05T19:15:20.891Z,20.13
2023-02-05T19:17:52.100Z,25.85
2023-02-05T19:20:22.968Z,24.70
2023-02-05T19:22:58.668Z,24.67
2023-02-05T19:25:30.225Z,25.40
2023-02-05T19:28:03.747Z,26.35
2023-02-05T19:30:35.736Z,29.08
2023-02-05T19:33:07.274Z,29.02
2023-02-05T19:35:37.498Z,30.77
2023-02-05T19:38:10.275Z,28.40
2023-02-05T19:40:40.564Z,32.00
2023-02-05T19:43:10.703Z,32.60
2023-02-05T19:45:40.858Z,29.58
2023-02-05T19:48:11.087Z,27.67
2023-02-05T19:50:41.386Z,27.77
2023-02-05T19:53:14.940Z,28.58
2023-02-05T19:55:45.198Z,27.92
2023-02-05T19:58:16.180Z,26.45
2023-02-05T20:00:46.940Z,26.80
2023-02-05T20:03:17.754Z,27.25
2023-02-05T20:05:48.842Z,25.48
2023-02-05T20:08:22.755Z,24.65
2023-02-05T20:11:00.808Z,24.25
2023-02-05T20:13:32.839Z,24.02
2023-02-05T20:16:05.940Z,23.27
2023-02-05T20:18:36.531Z,25.98
2023-02-05T20:21:09.583Z,28.75
2023-02-05T20:23:42.421Z,26.38
2023-02-05T20:26:14.413Z,28.08
2023-02-05T20:28:57.753Z,27.60
2023-02-05T20:31:41.433Z,29.85
2023-02-05T20:34:18.389Z,28.70
2023-02-05T20:36:51.242Z,28.10
2023-02-05T20:39:28.640Z,28.08
2023-02-05T20:42:00.577Z,27.48
2023-02-05T20:44:33.792Z,26.35
2023-02-05T20:47:03.718Z,27.58
2023-02-05T20:49:33.602Z,26.88
2023-02-05T20:52:03.546Z,31.33
2023-02-05T20:54:36.487Z,31.83
2023-02-05T20:57:07.771Z,31.17
2023-02-05T20:59:38.666Z,29.30
2023-02-05T21:02:08.959Z,29.90
2023-02-05T21:04:39.739Z,30.27
2023-02-05T21:07:09.742Z,31.88
2023-02-05T21:09:42.248Z,31.25
2023-02-05T21:12:12.137Z,29.70
2023-02-05T21:14:42.018Z,27.70
2023-02-05T21:17:11.907Z,28.63
2023-02-05T21:19:42.281Z,27.80
2023-02-05T21:22:12.284Z,29.55
2023-02-05T21:24:44.754Z,32.67
2023-02-05T21:27:16.341Z,34.10
2023-02-05T21:29:46.326Z,31.33
2023-02-05T21:32:16.214Z,32.45
2023-02-05T21:34:46.099Z,31.92
2023-02-05T21:37:16.034Z,32.63
2023-02-05T21:39:50.865Z,34.25
2023-02-05T21:42:22.571Z,36.28
2023-02-05T21:44:54.236Z,35.97
2023-02-05T21:47:24.376Z,36.83
2023-02-05T21:49:54.261Z,39.88
2023-02-05T21:52:24.169Z,39.30
2023-02-05T21:54:56.716Z,36.42
2023-02-05T21:57:26.923Z,33.85
2023-02-05T21:59:57.051Z,33.70
2023-02-05T22:02:26.931Z,32.90
2023-02-05T22:04:56.955Z,33.95
2023-02-05T22:07:27.583Z,33.70
2023-02-05T22:10:00.087Z,32.50
2023-02-05T22:12:29.970Z,32.80
2023-02-05T22:14:59.850Z,33.10
2023-02-05T22:17:29.866Z,31.35
2023-02-05T22:19:59.773Z,31.85
2023-02-05T22:22:29.802Z,31.23
2023-02-05T22:25:02.299Z,30.50
2023-02-05T22:27:32.571Z,29.67
2023-02-05T22:30:02.477Z,29.13
2023-02-05T22:32:32.341Z,30.80
2023-02-05T22:35:02.188Z,29.85
2023-02-05T22:37:32.097Z,30.33
2023-02-05T22:40:07.102Z,30.60
2023-02-05T22:42:37.000Z,29.48
2023-02-05T22:45:07.783Z,29.83
2023-02-05T22:47:37.667Z,31.23
2023-02-05T22:50:08.942Z,31.25
2023-02-05T22:52:38.853Z,35.13
2023-02-05T22:55:11.652Z,37.17
2023-02-05T22:57:41.512Z,32.80
2023-02-05T23:00:13.542Z,33.67
2023-02-05T23:02:43.408Z,33.25
2023-02-05T23:05:13.383Z,36.38
2023-02-05T23:07:43.296Z,36.20
2023-02-05T23:10:15.819Z,34.17
2023-02-05T23:12:45.688Z,33.92
2023-02-05T23:15:15.852Z,33.70
2023-02-05T23:17:46.053Z,32.70
2023-02-05T23:20:16.766Z,33.25
2023-02-05T23:22:46.980Z,34.65
2023-02-05T23:25:19.714Z,29.67
2023-02-05T23:27:49.732Z,30.95
2023-02-05T23:30:19.897Z,28.40
2023-02-05T23:32:49.777Z,25.17
2023-02-05T23:35:19.867Z,24.75
2023-02-05T23:37:49.807Z,25.70
2023-02-05T23:40:22.681Z,26.60
2023-02-05T23:42:52.616Z,26.67
2023-02-05T23:45:22.530Z,25.52
2023-02-05T23:47:52.479Z,24.38
2023-02-05T23:50:22.354Z,22.60
2023-02-05T23:52:52.221Z,21.20
2023-02-05T23:55:24.682Z,21.35
2023-02-05T23:57:54.540Z,17.95
